Time;durP1;ratioP1;P1;durP2;ratioP2;P2;SDS_P1;SDS_P2;PMS_P1;PMS_P2;Temp;Humidity;BMP_temperature;BMP_pressure;BME280_temperature;BME280_humidity;BME280_pressure;Samples;Min_cycle;Max_cycle;Signal;HPM_P1;HPM_P2
2022/10/15 00:01:14;;;;;;;46.83;30.23;;;;;;;;;;6575209;28;20231;-86
2022/10/15 00:04:24;;;;;;;42.43;27.83;;;;;;;;;;6574567;28;20180;-86
2022/10/15 00:07:34;;;;;;;45.03;28.63;;;;;;;;;;6574599;28;20260;-86
2022/10/15 00:10:44;;;;;;;48.00;29.90;;;;;;;;;;6574065;28;20180;-86
2022/10/15 00:13:56;;;;;;;46.53;30.23;;;;;;;;;;6574843;28;20284;-86
2022/10/15 00:17:06;;;;;;;48.40;31.07;;;;;;;;;;6556730;28;20727;-85
2022/10/15 00:20:17;;;;;;;52.20;32.00;;;;;;;;;;6556525;28;20169;-85
2022/10/15 00:23:27;;;;;;;46.33;30.43;;;;;;;;;;6573915;28;20180;-85
2022/10/15 00:26:37;;;;;;;46.77;29.23;;;;;;;;;;6574340;28;20184;-86
2022/10/15 00:29:48;;;;;;;42.30;29.33;;;;;;;;;;6573912;28;20525;-86
2022/10/15 00:32:58;;;;;;;48.47;30.67;;;;;;;;;;6573771;28;20177;-86
2022/10/15 00:36:13;;;;;;;49.20;30.60;;;;;;;;;;6574616;28;20204;-86
2022/10/15 00:39:23;;;;;;;48.17;30.17;;;;;;;;;;6574017;28;20188;-86
2022/10/15 00:42:34;;;;;;;40.73;28.47;;;;;;;;;;6573244;28;20533;-87
2022/10/15 00:45:44;;;;;;;43.77;28.90;;;;;;;;;;6573915;28;20212;-86
2022/10/15 00:49:10;;;;;;;45.77;28.27;;;;;;;;;;6555994;28;20238;-86
2022/10/15 00:52:39;;;;;;;42.83;28.43;;;;;;;;;;6573539;28;20201;-86
2022/10/15 00:55:50;;;;;;;45.30;28.87;;;;;;;;;;6572865;28;20254;-86
2022/10/15 00:59:00;;;;;;;43.00;28.03;;;;;;;;;;6572846;28;20185;-86
2022/10/15 01:02:11;;;;;;;42.87;28.33;;;;;;;;;;6573298;28;20528;-86
2022/10/15 01:05:22;;;;;;;44.73;28.83;;;;;;;;;;6572796;28;20185;-86
2022/10/15 01:08:33;;;;;;;50.47;29.13;;;;;;;;;;6573388;28;20196;-86
2022/10/15 01:11:45;;;;;;;40.10;28.47;;;;;;;;;;6572967;28;20207;-86
2022/10/15 01:14:56;;;;;;;45.10;28.20;;;;;;;;;;6572465;28;20204;-87
2022/10/15 01:18:08;;;;;;;46.57;27.83;;;;;;;;;;6572945;28;20205;-86
2022/10/15 01:21:25;;;;;;;48.27;29.97;;;;;;;;;;6572494;28;20304;-87
2022/10/15 01:24:50;;;;;;;54.70;29.17;;;;;;;;;;6572644;28;20158;-87
2022/10/15 01:28:12;;;;;;;45.10;28.70;;;;;;;;;;6573643;28;20573;-87
2022/10/15 01:31:26;;;;;;;44.63;28.20;;;;;;;;;;6573509;28;20505;-87
2022/10/15 01:34:54;;;;;;;49.77;31.20;;;;;;;;;;6572274;28;20170;-87
2022/10/15 01:38:23;;;;;;;51.13;30.23;;;;;;;;;;6571855;28;20264;-87
2022/10/15 01:41:42;;;;;;;50.57;29.97;;;;;;;;;;6571815;28;20574;-87
2022/10/15 01:44:56;;;;;;;46.47;29.67;;;;;;;;;;6554692;28;20185;-87
2022/10/15 01:48:08;;;;;;;51.17;29.40;;;;;;;;;;6572030;28;20169;-85
2022/10/15 01:51:19;;;;;;;50.53;30.03;;;;;;;;;;6571875;28;20200;-85
2022/10/15 01:54:30;;;;;;;47.33;29.37;;;;;;;;;;6572337;28;20177;-85
2022/10/15 01:57:42;;;;;;;48.33;29.23;;;;;;;;;;6572486;28;20513;-86
2022/10/15 02:00:53;;;;;;;49.40;28.57;;;;;;;;;;6572046;28;20562;-86
2022/10/15 02:04:16;;;;;;;51.50;29.87;;;;;;;;;;6571646;28;20177;-87
2022/10/15 02:07:45;;;;;;;43.23;27.80;;;;;;;;;;6571782;28;20240;-86
2022/10/15 02:11:03;;;;;;;47.97;27.63;;;;;;;;;;6571115;28;20184;-86
2022/10/15 02:14:16;;;;;;;49.00;28.97;;;;;;;;;;6553541;28;20181;-86
2022/10/15 02:17:33;;;;;;;47.53;29.40;;;;;;;;;;6571076;28;20250;-87
2022/10/15 02:20:49;;;;;;;50.90;28.40;;;;;;;;;;6571967;28;20184;-86
2022/10/15 02:24:12;;;;;;;48.87;27.63;;;;;;;;;;6571695;28;20165;-86
2022/10/15 02:27:24;;;;;;;49.53;30.47;;;;;;;;;;6570685;28;20177;-86
2022/10/15 02:30:36;;;;;;;49.67;30.97;;;;;;;;;;6571750;28;20224;-86
2022/10/15 02:33:47;;;;;;;47.53;28.87;;;;;;;;;;6570368;28;20181;-86
2022/10/15 02:36:59;;;;;;;49.43;28.90;;;;;;;;;;6570893;28;20549;-86
2022/10/15 02:40:10;;;;;;;47.80;29.50;;;;;;;;;;6570791;28;20177;-86
2022/10/15 02:43:20;;;;;;;44.13;27.57;;;;;;;;;;6570392;28;20188;-86
2022/10/15 02:46:31;;;;;;;44.93;27.53;;;;;;;;;;6570715;28;20205;-86
2022/10/15 02:49:41;;;;;;;47.30;27.93;;;;;;;;;;6570396;28;20177;-86
2022/10/15 02:52:51;;;;;;;45.23;27.47;;;;;;;;;;6570374;28;20625;-85
2022/10/15 02:56:02;;;;;;;43.33;28.10;;;;;;;;;;6570981;28;20201;-85
2022/10/15 02:59:12;;;;;;;47.23;27.57;;;;;;;;;;6569838;28;20176;-85
2022/10/15 03:02:22;;;;;;;47.93;28.73;;;;;;;;;;6569549;28;20173;-85
2022/10/15 03:05:33;;;;;;;47.27;28.40;;;;;;;;;;6570693;28;20177;-85
2022/10/15 03:08:43;;;;;;;50.53;29.43;;;;;;;;;;6552954;28;20181;-85
2022/10/15 03:11:54;;;;;;;51.60;29.17;;;;;;;;;;6570774;28;20169;-85
2022/10/15 03:15:04;;;;;;;44.37;28.40;;;;;;;;;;6569880;28;20219;-85
2022/10/15 03:18:15;;;;;;;45.10;28.30;;;;;;;;;;6570757;28;20200;-85
2022/10/15 03:21:27;;;;;;;46.33;28.73;;;;;;;;;;6570109;28;20173;-85
2022/10/15 03:24:37;;;;;;;47.30;28.60;;;;;;;;;;6570258;28;20176;-85
2022/10/15 03:27:48;;;;;;;42.27;27.60;;;;;;;;;;6573748;28;20239;-86
2022/10/15 03:30:58;;;;;;;45.07;26.80;;;;;;;;;;6574015;28;20188;-85
2022/10/15 03:34:09;;;;;;;44.53;27.67;;;;;;;;;;6575254;28;20509;-85
2022/10/15 03:37:19;;;;;;;42.23;26.77;;;;;;;;;;6575594;28;20213;-85
2022/10/15 03:40:30;;;;;;;45.40;28.17;;;;;;;;;;6575615;28;20173;-85
2022/10/15 03:43:40;;;;;;;43.73;27.07;;;;;;;;;;6575282;28;20184;-87
2022/10/15 03:46:50;;;;;;;41.73;28.77;;;;;;;;;;6574652;28;20532;-86
2022/10/15 03:50:01;;;;;;;45.23;29.03;;;;;;;;;;6574894;28;20225;-86
2022/10/15 03:53:12;;;;;;;39.73;26.83;;;;;;;;;;6574898;28;20193;-86
2022/10/15 03:56:22;;;;;;;40.73;26.67;;;;;;;;;;6574355;28;20240;-86
2022/10/15 03:59:32;;;;;;;44.63;27.77;;;;;;;;;;6575115;28;20235;-85
2022/10/15 04:02:43;;;;;;;38.53;27.67;;;;;;;;;;6575889;28;20535;-85
2022/10/15 04:05:53;;;;;;;43.13;27.67;;;;;;;;;;6574311;28;20667;-85
2022/10/15 04:09:03;;;;;;;39.00;25.93;;;;;;;;;;6574635;28;20315;-85
2022/10/15 04:12:14;;;;;;;38.10;26.30;;;;;;;;;;6556300;28;20176;-85
2022/10/15 04:15:26;;;;;;;40.83;26.63;;;;;;;;;;6573963;28;20215;-85
2022/10/15 04:18:36;;;;;;;40.10;27.37;;;;;;;;;;6575007;28;20248;-85
2022/10/15 04:21:46;;;;;;;37.87;25.87;;;;;;;;;;6574089;28;20469;-85
2022/10/15 04:24:57;;;;;;;41.73;27.17;;;;;;;;;;6574709;28;20696;-86
2022/10/15 04:28:07;;;;;;;39.93;26.47;;;;;;;;;;6574112;28;20169;-85
2022/10/15 04:31:17;;;;;;;42.50;27.13;;;;;;;;;;6574249;28;20180;-85
2022/10/15 04:34:28;;;;;;;40.73;26.30;;;;;;;;;;6573636;28;20646;-85
2022/10/15 04:37:38;;;;;;;44.93;28.60;;;;;;;;;;6573771;28;20212;-85
2022/10/15 04:40:48;;;;;;;44.07;27.47;;;;;;;;;;6573692;28;20204;-85
2022/10/15 04:43:58;;;;;;;43.60;27.33;;;;;;;;;;6573459;28;20171;-85
2022/10/15 04:47:09;;;;;;;44.73;27.40;;;;;;;;;;6573275;28;20537;-86
2022/10/15 04:50:19;;;;;;;48.93;29.33;;;;;;;;;;6573559;28;20193;-86
2022/10/15 04:53:30;;;;;;;46.50;28.67;;;;;;;;;;6573961;28;20181;-86
2022/10/15 04:56:40;;;;;;;52.37;29.67;;;;;;;;;;6573262;28;20289;-86
2022/10/15 04:59:51;;;;;;;47.40;27.77;;;;;;;;;;6573277;28;20598;-85
2022/10/15 05:03:03;;;;;;;49.63;28.83;;;;;;;;;;6573073;28;20173;-85
2022/10/15 05:06:20;;;;;;;44.23;27.73;;;;;;;;;;6572758;28;20181;-85
2022/10/15 05:09:31;;;;;;;47.00;27.60;;;;;;;;;;6572607;28;20239;-87
2022/10/15 05:12:41;;;;;;;46.03;28.57;;;;;;;;;;6572931;28;20165;-87
2022/10/15 05:15:52;;;;;;;50.40;29.00;;;;;;;;;;6573096;28;20205;-85
2022/10/15 05:19:06;;;;;;;53.30;29.50;;;;;;;;;;6573495;28;20637;-87
2022/10/15 05:22:16;;;;;;;45.67;29.20;;;;;;;;;;6572402;28;20177;-87
2022/10/15 05:25:26;;;;;;;44.97;29.40;;;;;;;;;;6555237;28;20220;-87
2022/10/15 05:28:37;;;;;;;43.43;26.87;;;;;;;;;;6572682;28;20169;-86
2022/10/15 05:31:49;;;;;;;47.67;29.33;;;;;;;;;;6572455;28;20256;-86
2022/10/15 05:34:59;;;;;;;43.97;29.13;;;;;;;;;;6572096;28;20239;-86
2022/10/15 05:38:09;;;;;;;43.93;29.17;;;;;;;;;;6573576;28;20173;-86
2022/10/15 05:41:20;;;;;;;39.60;26.97;;;;;;;;;;6571918;28;20279;-86
2022/10/15 05:44:30;;;;;;;42.50;28.50;;;;;;;;;;6571883;28;20173;-86
2022/10/15 05:47:41;;;;;;;41.47;28.23;;;;;;;;;;6571706;28;20201;-86
2022/10/15 05:50:51;;;;;;;41.37;28.03;;;;;;;;;;6571293;28;20197;-86
2022/10/15 05:54:01;;;;;;;43.43;28.27;;;;;;;;;;6571800;28;20181;-86
2022/10/15 05:57:11;;;;;;;42.03;28.13;;;;;;;;;;6571481;28;20565;-86
2022/10/15 06:00:23;;;;;;;46.20;29.70;;;;;;;;;;6571782;28;20311;-87
2022/10/15 06:03:34;;;;;;;38.60;26.10;;;;;;;;;;6554135;28;20637;-86
2022/10/15 06:06:44;;;;;;;45.90;29.37;;;;;;;;;;6571213;28;20199;-86
2022/10/15 06:09:54;;;;;;;44.73;27.97;;;;;;;;;;6571858;28;20630;-86
2022/10/15 06:13:05;;;;;;;39.83;28.40;;;;;;;;;;6571262;28;20177;-86
2022/10/15 06:16:16;;;;;;;41.70;28.20;;;;;;;;;;6571371;28;20197;-86
2022/10/15 06:19:26;;;;;;;39.00;27.13;;;;;;;;;;6571141;28;20204;-85
2022/10/15 06:22:37;;;;;;;37.53;27.10;;;;;;;;;;6571270;28;20169;-85
2022/10/15 06:25:49;;;;;;;38.90;27.67;;;;;;;;;;6570804;28;20177;-86
2022/10/15 06:28:59;;;;;;;39.47;27.40;;;;;;;;;;6571601;28;20255;-86
2022/10/15 06:32:10;;;;;;;38.80;27.00;;;;;;;;;;6570662;28;20219;-87
2022/10/15 06:35:21;;;;;;;36.60;25.93;;;;;;;;;;6571168;28;20531;-87
2022/10/15 06:38:31;;;;;;;34.93;25.73;;;;;;;;;;6553715;28;20753;-87
2022/10/15 06:41:42;;;;;;;33.30;25.90;;;;;;;;;;6571225;28;20264;-86
2022/10/15 06:44:55;;;;;;;30.80;25.10;;;;;;;;;;6571368;28;20180;-86
2022/10/15 06:48:05;;;;;;;30.37;24.90;;;;;;;;;;6570446;28;20169;-86
2022/10/15 06:51:16;;;;;;;30.70;25.80;;;;;;;;;;6571196;28;20280;-86
2022/10/15 06:54:26;;;;;;;29.40;23.47;;;;;;;;;;6570687;28;20174;-86
2022/10/15 06:57:36;;;;;;;29.57;23.43;;;;;;;;;;6570540;28;20262;-86
2022/10/15 07:00:47;;;;;;;26.70;21.87;;;;;;;;;;6570117;28;20252;-87
2022/10/15 07:03:57;;;;;;;28.03;23.47;;;;;;;;;;6570535;28;20177;-85
2022/10/15 07:07:07;;;;;;;26.57;22.17;;;;;;;;;;6569964;28;20223;-85
2022/10/15 07:10:18;;;;;;;28.03;23.03;;;;;;;;;;6570575;28;20248;-85
2022/10/15 07:13:28;;;;;;;28.27;22.10;;;;;;;;;;6570170;28;20645;-86
2022/10/15 07:16:39;;;;;;;28.42;22.00;;;;;;;;;;6570189;28;20223;-85
2022/10/15 07:19:49;;;;;;;28.57;22.87;;;;;;;;;;6570213;28;20165;-85
2022/10/15 07:23:00;;;;;;;26.93;22.03;;;;;;;;;;6570177;28;20169;-85
2022/10/15 07:26:11;;;;;;;26.17;21.20;;;;;;;;;;6570453;28;20203;-85
2022/10/15 07:29:21;;;;;;;26.20;21.67;;;;;;;;;;6570103;28;20169;-85
2022/10/15 07:32:32;;;;;;;25.40;21.80;;;;;;;;;;6552449;28;20216;-85
2022/10/15 07:35:42;;;;;;;25.90;21.40;;;;;;;;;;6570651;28;20204;-85
2022/10/15 07:38:52;;;;;;;24.73;20.30;;;;;;;;;;6570699;28;20190;-85
2022/10/15 07:42:03;;;;;;;23.87;19.27;;;;;;;;;;6552347;28;20219;-85
2022/10/15 07:45:13;;;;;;;26.10;20.30;;;;;;;;;;6569921;28;20173;-85
2022/10/15 07:48:24;;;;;;;22.43;19.30;;;;;;;;;;6553280;28;20614;-85
2022/10/15 07:51:34;;;;;;;21.30;16.87;;;;;;;;;;6569432;28;20197;-85
2022/10/15 07:54:44;;;;;;;23.50;19.53;;;;;;;;;;6569345;28;20649;-85
2022/10/15 07:57:57;;;;;;;22.43;18.77;;;;;;;;;;6569407;28;20176;-85
2022/10/15 08:01:08;;;;;;;24.63;19.43;;;;;;;;;;6569591;28;20236;-84
2022/10/15 08:04:19;;;;;;;24.17;19.63;;;;;;;;;;6569878;28;20189;-84
2022/10/15 08:07:29;;;;;;;20.43;18.07;;;;;;;;;;6569353;28;20212;-84
2022/10/15 08:10:40;;;;;;;21.27;17.23;;;;;;;;;;6569334;28;20173;-84
2022/10/15 08:13:51;;;;;;;21.67;16.87;;;;;;;;;;6572586;28;20630;-84
2022/10/15 08:17:02;;;;;;;20.03;16.37;;;;;;;;;;6574503;28;20201;-84
2022/10/15 08:20:13;;;;;;;19.50;15.83;;;;;;;;;;6574529;28;20201;-84
2022/10/15 08:23:23;;;;;;;21.17;16.67;;;;;;;;;;6574228;28;20175;-85
2022/10/15 08:26:34;;;;;;;19.00;15.50;;;;;;;;;;6574298;28;20177;-85
2022/10/15 08:29:45;;;;;;;18.10;15.23;;;;;;;;;;6574295;28;20177;-85
2022/10/15 08:32:55;;;;;;;18.30;15.60;;;;;;;;;;6573568;28;20688;-85
2022/10/15 08:36:06;;;;;;;17.63;15.37;;;;;;;;;;6573586;28;20201;-84
2022/10/15 08:39:16;;;;;;;16.42;14.10;;;;;;;;;;6573541;28;20173;-84
2022/10/15 08:42:38;;;;;;;16.60;14.50;;;;;;;;;;6573710;28;20165;-84
2022/10/15 08:45:50;;;;;;;16.17;14.48;;;;;;;;;;6573471;28;20235;-85
2022/10/15 08:49:01;;;;;;;14.48;13.02;;;;;;;;;;6573511;28;20641;-84
2022/10/15 08:52:17;;;;;;;17.13;13.52;;;;;;;;;;6573016;28;20189;-85
2022/10/15 08:55:34;;;;;;;15.27;13.20;;;;;;;;;;6573677;28;20201;-85
2022/10/15 08:58:50;;;;;;;16.57;13.10;;;;;;;;;;6573516;28;20158;-85
2022/10/15 09:02:09;;;;;;;14.55;12.48;;;;;;;;;;6573477;28;20240;-85
2022/10/15 09:05:26;;;;;;;15.95;13.18;;;;;;;;;;6574392;28;20169;-85
2022/10/15 09:08:39;;;;;;;15.35;13.75;;;;;;;;;;6573406;28;20173;-85
2022/10/15 09:12:05;;;;;;;16.65;13.98;;;;;;;;;;6573032;28;20165;-85
2022/10/15 09:15:17;;;;;;;15.20;12.98;;;;;;;;;;6573167;28;20251;-85
2022/10/15 09:18:30;;;;;;;14.85;12.63;;;;;;;;;;6572777;28;20251;-86
2022/10/15 09:21:41;;;;;;;13.75;12.35;;;;;;;;;;6573551;28;20208;-85
2022/10/15 09:24:51;;;;;;;16.02;13.13;;;;;;;;;;6571950;28;20199;-86
2022/10/15 09:28:10;;;;;;;14.88;13.20;;;;;;;;;;6572617;28;20633;-86
2022/10/15 09:31:24;;;;;;;13.95;12.38;;;;;;;;;;6572732;28;20184;-86
2022/10/15 09:34:46;;;;;;;13.02;11.73;;;;;;;;;;6554335;28;20618;-87
2022/10/15 09:38:12;;;;;;;13.82;12.38;;;;;;;;;;6571802;28;20185;-86
2022/10/15 09:41:41;;;;;;;13.35;11.90;;;;;;;;;;6571271;28;20244;-86
2022/10/15 09:44:51;;;;;;;13.38;12.00;;;;;;;;;;6571411;28;20172;-86
2022/10/15 09:48:04;;;;;;;13.40;11.88;;;;;;;;;;6572160;28;20232;-86
2022/10/15 09:51:24;;;;;;;13.25;11.70;;;;;;;;;;6571994;28;20184;-85
2022/10/15 09:54:53;;;;;;;12.75;11.55;;;;;;;;;;6572895;28;20165;-86
2022/10/15 09:58:08;;;;;;;11.35;10.18;;;;;;;;;;6572175;28;20184;-86
2022/10/15 10:01:21;;;;;;;11.63;10.43;;;;;;;;;;6571393;28;20622;-86
2022/10/15 10:04:33;;;;;;;12.55;11.35;;;;;;;;;;6554123;28;20644;-85
2022/10/15 10:07:43;;;;;;;13.35;11.60;;;;;;;;;;6571649;28;20197;-86
2022/10/15 10:10:54;;;;;;;13.10;11.80;;;;;;;;;;6571974;28;20196;-85
2022/10/15 10:14:05;;;;;;;16.25;12.45;;;;;;;;;;6570939;28;20223;-86
2022/10/15 10:17:17;;;;;;;12.95;11.65;;;;;;;;;;6570806;28;20201;-86
2022/10/15 10:20:30;;;;;;;14.18;12.15;;;;;;;;;;6571070;28;20172;-86
2022/10/15 10:23:41;;;;;;;15.48;12.45;;;;;;;;;;6570762;28;20264;-86
2022/10/15 10:26:51;;;;;;;17.38;12.40;;;;;;;;;;6571195;28;20227;-84
2022/10/15 10:30:05;;;;;;;12.73;11.23;;;;;;;;;;6570570;28;20176;-84
2022/10/15 10:33:20;;;;;;;18.15;13.48;;;;;;;;;;6571375;28;20187;-84
2022/10/15 10:36:35;;;;;;;13.93;11.88;;;;;;;;;;6570130;28;20224;-83
2022/10/15 10:39:51;;;;;;;13.07;11.65;;;;;;;;;;6571138;28;20212;-86
2022/10/15 10:43:16;;;;;;;12.30;10.95;;;;;;;;;;6570674;28;20189;-86
2022/10/15 10:46:27;;;;;;;17.27;12.55;;;;;;;;;;6571156;28;20161;-86
2022/10/15 10:49:49;;;;;;;13.52;11.30;;;;;;;;;;6571655;28;20243;-84
2022/10/15 10:53:19;;;;;;;14.07;12.20;;;;;;;;;;6570603;28;20608;-84
2022/10/15 10:56:33;;;;;;;12.57;11.30;;;;;;;;;;6570121;28;20542;-85
2022/10/15 10:59:48;;;;;;;13.45;11.30;;;;;;;;;;6570421;28;20220;-85
2022/10/15 11:02:59;;;;;;;11.70;10.50;;;;;;;;;;6571200;28;20173;-86
2022/10/15 11:06:30;;;;;;;13.57;12.27;;;;;;;;;;6570771;28;20616;-85
2022/10/15 11:09:43;;;;;;;12.63;11.43;;;;;;;;;;6570331;28;20172;-85
2022/10/15 11:13:02;;;;;;;13.30;11.95;;;;;;;;;;6570059;28;20169;-84
2022/10/15 11:16:24;;;;;;;16.23;13.05;;;;;;;;;;6570406;28;20291;-85
2022/10/15 11:19:38;;;;;;;13.63;12.20;;;;;;;;;;6569879;28;20252;-85
2022/10/15 11:22:48;;;;;;;13.98;12.52;;;;;;;;;;6570662;28;20200;-84
2022/10/15 11:26:01;;;;;;;16.40;11.60;;;;;;;;;;6570287;28;20665;-85
2022/10/15 11:29:18;;;;;;;13.52;12.23;;;;;;;;;;6570830;28;20173;-84
2022/10/15 11:32:43;;;;;;;13.60;12.18;;;;;;;;;;6570924;28;20165;-84
2022/10/15 11:36:01;;;;;;;12.50;11.30;;;;;;;;;;6552650;28;20676;-84
2022/10/15 11:39:22;;;;;;;13.45;12.07;;;;;;;;;;6570336;28;20229;-84
2022/10/15 11:42:40;;;;;;;13.43;12.02;;;;;;;;;;6570097;28;20154;-84
2022/10/15 11:45:59;;;;;;;15.50;12.90;;;;;;;;;;6571058;28;20181;-84
2022/10/15 11:49:12;;;;;;;14.10;12.55;;;;;;;;;;6574224;28;20244;-85
2022/10/15 11:52:28;;;;;;;13.68;12.23;;;;;;;;;;6575273;28;20196;-85
2022/10/15 11:55:44;;;;;;;14.07;12.55;;;;;;;;;;6574961;28;20287;-84
2022/10/15 11:58:58;;;;;;;12.93;11.55;;;;;;;;;;6574891;28;20304;-84
2022/10/15 12:02:18;;;;;;;12.93;11.43;;;;;;;;;;6575116;28;20173;-84
2022/10/15 12:05:38;;;;;;;13.60;12.23;;;;;;;;;;6574823;28;20193;-84
2022/10/15 12:08:49;;;;;;;13.75;11.45;;;;;;;;;;6574931;28;20203;-84
2022/10/15 12:12:02;;;;;;;13.52;11.70;;;;;;;;;;6575072;28;20499;-84
2022/10/15 12:15:18;;;;;;;13.68;12.10;;;;;;;;;;6574390;28;20216;-84
2022/10/15 12:18:48;;;;;;;12.68;11.45;;;;;;;;;;6574760;28;20503;-83
2022/10/15 12:21:58;;;;;;;13.45;12.05;;;;;;;;;;6575123;28;20211;-85
2022/10/15 12:25:28;;;;;;;14.90;11.00;;;;;;;;;;6575076;28;20646;-84
2022/10/15 12:28:46;;;;;;;12.82;11.38;;;;;;;;;;6574388;28;20235;-85
2022/10/15 12:31:57;;;;;;;13.52;12.13;;;;;;;;;;6574162;28;20250;-84
2022/10/15 12:35:13;;;;;;;14.13;12.70;;;;;;;;;;6574729;28;20642;-84
2022/10/15 12:38:26;;;;;;;14.05;11.40;;;;;;;;;;6556254;28;20185;-84
2022/10/15 12:41:38;;;;;;;12.63;11.00;;;;;;;;;;6574321;28;20165;-85
2022/10/15 12:44:49;;;;;;;11.35;10.30;;;;;;;;;;6573794;28;20177;-84
2022/10/15 12:48:02;;;;;;;14.10;12.65;;;;;;;;;;6572565;28;20634;-84
2022/10/15 12:51:16;;;;;;;13.18;11.90;;;;;;;;;;6556062;28;20667;-84
2022/10/15 12:54:40;;;;;;;12.98;11.38;;;;;;;;;;6573488;28;20173;-84
2022/10/15 12:57:51;;;;;;;13.13;11.82;;;;;;;;;;6573179;28;20561;-84
2022/10/15 13:01:28;;;;;;;12.82;11.63;;;;;;;;;;6563309;28;20697;-85
2022/10/15 13:04:39;;;;;;;12.73;11.52;;;;;;;;;;6551421;28;20263;-84
2022/10/15 13:07:50;;;;;;;13.70;12.27;;;;;;;;;;6573615;28;20185;-85
2022/10/15 13:11:01;;;;;;;13.15;11.77;;;;;;;;;;6573097;28;20169;-84
2022/10/15 13:14:11;;;;;;;12.88;11.65;;;;;;;;;;6573358;28;20178;-84
2022/10/15 13:17:21;;;;;;;12.55;11.32;;;;;;;;;;6571727;28;20205;-86
2022/10/15 13:20:36;;;;;;;12.32;11.13;;;;;;;;;;6571951;28;20169;-84
2022/10/15 13:23:47;;;;;;;13.57;12.30;;;;;;;;;;6572843;28;20185;-84
2022/10/15 13:26:59;;;;;;;16.15;12.20;;;;;;;;;;6573174;28;20177;-85
2022/10/15 13:30:14;;;;;;;15.52;12.60;;;;;;;;;;6572243;28;20180;-84
2022/10/15 13:33:24;;;;;;;13.68;11.65;;;;;;;;;;6572504;28;20177;-84
2022/10/15 13:36:35;;;;;;;12.43;11.23;;;;;;;;;;6572596;28;20672;-84
2022/10/15 13:39:48;;;;;;;15.05;12.23;;;;;;;;;;6571954;28;20645;-83
2022/10/15 13:43:04;;;;;;;13.55;12.18;;;;;;;;;;6572255;28;20169;-84
2022/10/15 13:46:15;;;;;;;13.05;11.75;;;;;;;;;;6572551;28;20162;-83
2022/10/15 13:49:25;;;;;;;16.85;13.50;;;;;;;;;;6572104;28;20537;-84
2022/10/15 13:52:43;;;;;;;14.48;12.93;;;;;;;;;;6571745;28;20275;-83
2022/10/15 13:55:55;;;;;;;13.88;12.48;;;;;;;;;;6572231;28;20232;-83
2022/10/15 13:59:24;;;;;;;14.23;12.73;;;;;;;;;;6571350;28;20481;-84
2022/10/15 14:02:34;;;;;;;13.98;12.50;;;;;;;;;;6571327;28;20193;-85
2022/10/15 14:05:46;;;;;;;14.20;12.70;;;;;;;;;;6571662;28;20173;-83
2022/10/15 14:08:58;;;;;;;16.33;13.65;;;;;;;;;;6570714;28;20180;-84
2022/10/15 14:12:10;;;;;;;15.18;13.57;;;;;;;;;;6570007;28;20260;-84
2022/10/15 14:15:39;;;;;;;16.42;13.88;;;;;;;;;;6569767;28;20208;-84
2022/10/15 14:18:53;;;;;;;13.85;12.07;;;;;;;;;;6570615;28;20525;-84
2022/10/15 14:22:04;;;;;;;15.40;13.77;;;;;;;;;;6571830;28;20235;-84
2022/10/15 14:25:21;;;;;;;17.98;13.40;;;;;;;;;;6570290;28;20173;-84
2022/10/15 14:28:32;;;;;;;18.13;14.80;;;;;;;;;;6571407;28;20585;-84
2022/10/15 14:31:45;;;;;;;16.98;15.15;;;;;;;;;;6571007;28;20191;-84
2022/10/15 14:34:56;;;;;;;17.88;16.08;;;;;;;;;;6570237;28;20173;-84
2022/10/15 14:38:09;;;;;;;17.30;15.60;;;;;;;;;;6570498;28;20219;-84
2022/10/15 14:41:37;;;;;;;19.95;16.65;;;;;;;;;;6569670;28;20165;-84
2022/10/15 14:44:49;;;;;;;21.35;17.13;;;;;;;;;;6551832;28;20730;-87
2022/10/15 14:48:20;;;;;;;18.73;16.73;;;;;;;;;;6568609;28;20626;-84
2022/10/15 14:51:30;;;;;;;18.38;16.23;;;;;;;;;;6569307;28;20339;-84
2022/10/15 14:54:43;;;;;;;27.33;24.25;;;;;;;;;;6570660;28;20621;-83
2022/10/15 14:57:54;;;;;;;21.20;17.97;;;;;;;;;;6570725;28;20236;-85
2022/10/15 15:01:05;;;;;;;18.00;16.10;;;;;;;;;;6568822;28;20239;-85
2022/10/15 15:04:35;;;;;;;19.30;16.17;;;;;;;;;;6568212;28;20173;-86
2022/10/15 15:07:47;;;;;;;18.80;16.50;;;;;;;;;;6567859;28;20511;-86
2022/10/15 15:11:00;;;;;;;21.63;18.13;;;;;;;;;;6550438;28;20209;-86
2022/10/15 15:14:21;;;;;;;22.47;18.57;;;;;;;;;;6567944;28;20664;-86
2022/10/15 15:17:32;;;;;;;23.90;19.40;;;;;;;;;;6567817;28;20213;-86
2022/10/15 15:20:44;;;;;;;18.47;16.30;;;;;;;;;;6568335;28;20173;-85
2022/10/15 15:23:55;;;;;;;39.13;28.47;;;;;;;;;;6569907;28;20173;-85
2022/10/15 15:27:05;;;;;;;38.53;31.97;;;;;;;;;;6569885;28;20260;-84
2022/10/15 15:30:17;;;;;;;36.37;29.50;;;;;;;;;;6570463;28;20169;-84
2022/10/15 15:33:28;;;;;;;48.73;39.90;;;;;;;;;;6569703;28;20235;-84
2022/10/15 15:36:38;;;;;;;38.97;31.47;;;;;;;;;;6569633;28;20224;-84
2022/10/15 15:39:49;;;;;;;39.87;29.50;;;;;;;;;;6569123;28;20630;-83
2022/10/15 15:42:59;;;;;;;23.53;20.00;;;;;;;;;;6570430;28;20183;-83
2022/10/15 15:46:09;;;;;;;24.27;19.87;;;;;;;;;;6569064;28;20645;-84
2022/10/15 15:49:20;;;;;;;26.07;21.03;;;;;;;;;;6568631;28;20180;-84
2022/10/15 15:52:30;;;;;;;24.03;21.43;;;;;;;;;;6568664;28;20193;-84
2022/10/15 15:55:41;;;;;;;25.40;21.90;;;;;;;;;;6569810;28;20292;-84
2022/10/15 15:58:51;;;;;;;24.17;21.17;;;;;;;;;;6569792;28;20622;-84
2022/10/15 16:02:01;;;;;;;26.53;22.97;;;;;;;;;;6568986;28;20233;-85
2022/10/15 16:05:14;;;;;;;26.03;22.00;;;;;;;;;;6569262;28;20228;-84
2022/10/15 16:08:25;;;;;;;24.97;20.50;;;;;;;;;;6552089;28;20684;-83
2022/10/15 16:11:38;;;;;;;26.73;22.37;;;;;;;;;;6550319;28;20268;-83
2022/10/15 16:14:49;;;;;;;29.23;22.63;;;;;;;;;;6550222;28;20273;-84
2022/10/15 16:17:59;;;;;;;183.83;106.37;;;;;;;;;;6551662;28;20304;-82
2022/10/15 16:21:09;;;;;;;293.53;165.50;;;;;;;;;;6569710;28;20177;-83
2022/10/15 16:24:20;;;;;;;68.43;47.90;;;;;;;;;;6568240;28;20324;-83
2022/10/15 16:27:31;;;;;;;42.93;33.77;;;;;;;;;;6568727;28;20185;-83
2022/10/15 16:30:42;;;;;;;32.63;27.83;;;;;;;;;;6569430;28;20176;-83
2022/10/15 16:33:53;;;;;;;25.87;22.40;;;;;;;;;;6571414;28;20614;-83
2022/10/15 16:37:03;;;;;;;27.10;21.53;;;;;;;;;;6573904;28;20208;-83
2022/10/15 16:40:14;;;;;;;26.83;21.00;;;;;;;;;;6573471;28;20197;-83
2022/10/15 16:43:25;;;;;;;37.97;26.83;;;;;;;;;;6573595;28;20696;-83
2022/10/15 16:46:35;;;;;;;29.23;23.53;;;;;;;;;;6573019;28;20169;-83
2022/10/15 16:49:46;;;;;;;28.30;22.50;;;;;;;;;;6555983;28;20177;-83
2022/10/15 16:52:56;;;;;;;26.57;20.93;;;;;;;;;;6573620;28;20243;-84
2022/10/15 16:56:08;;;;;;;27.70;21.77;;;;;;;;;;6555578;28;20571;-83
2022/10/15 16:59:19;;;;;;;25.50;20.40;;;;;;;;;;6572974;28;20251;-84
2022/10/15 17:02:29;;;;;;;26.37;20.77;;;;;;;;;;6572854;28;20149;-84
2022/10/15 17:05:40;;;;;;;32.83;26.23;;;;;;;;;;6572813;28;20271;-84
2022/10/15 17:08:51;;;;;;;30.67;24.93;;;;;;;;;;6572875;28;20176;-84
2022/10/15 17:12:01;;;;;;;30.47;23.30;;;;;;;;;;6572474;28;20676;-83
2022/10/15 17:15:11;;;;;;;33.87;26.20;;;;;;;;;;6573221;28;20177;-84
2022/10/15 17:18:23;;;;;;;27.37;22.50;;;;;;;;;;6572215;28;20248;-84
2022/10/15 17:21:34;;;;;;;27.47;22.10;;;;;;;;;;6572238;28;20200;-84
2022/10/15 17:24:44;;;;;;;35.30;25.00;;;;;;;;;;6554982;28;20173;-83
2022/10/15 17:27:55;;;;;;;31.57;23.57;;;;;;;;;;6572763;28;20169;-84
2022/10/15 17:31:06;;;;;;;25.43;20.03;;;;;;;;;;6572612;28;20223;-84
2022/10/15 17:34:17;;;;;;;23.80;19.80;;;;;;;;;;6555151;28;20185;-83
2022/10/15 17:37:27;;;;;;;27.30;22.47;;;;;;;;;;6572473;28;20224;-84
2022/10/15 17:40:39;;;;;;;21.47;17.53;;;;;;;;;;6572764;28;20177;-86
2022/10/15 17:43:49;;;;;;;20.90;17.53;;;;;;;;;;6572416;28;20200;-84
2022/10/15 17:47:00;;;;;;;26.50;18.03;;;;;;;;;;6570404;28;20192;-84
2022/10/15 17:50:13;;;;;;;19.70;17.47;;;;;;;;;;6571964;28;20173;-85
2022/10/15 17:53:24;;;;;;;23.77;18.57;;;;;;;;;;6572292;28;20189;-85
2022/10/15 17:56:35;;;;;;;20.47;17.17;;;;;;;;;;6571295;28;20224;-84
2022/10/15 17:59:46;;;;;;;21.57;16.10;;;;;;;;;;6570847;28;20236;-86
2022/10/15 18:02:56;;;;;;;18.33;15.27;;;;;;;;;;6569646;28;20201;-86
2022/10/15 18:06:08;;;;;;;21.57;16.23;;;;;;;;;;6570451;28;20517;-87
2022/10/15 18:09:19;;;;;;;23.27;18.27;;;;;;;;;;6569711;28;20219;-86
2022/10/15 18:12:29;;;;;;;24.53;19.23;;;;;;;;;;6571413;28;20177;-86
2022/10/15 18:15:46;;;;;;;22.87;18.53;;;;;;;;;;6570403;28;20700;-85
2022/10/15 18:18:58;;;;;;;28.23;20.57;;;;;;;;;;6571094;28;20189;-86
2022/10/15 18:22:09;;;;;;;21.60;17.70;;;;;;;;;;6570885;28;20165;-85
2022/10/15 18:25:19;;;;;;;26.37;19.90;;;;;;;;;;6571059;28;20696;-86
2022/10/15 18:28:31;;;;;;;25.57;19.90;;;;;;;;;;6571704;28;20705;-85
2022/10/15 18:31:41;;;;;;;22.40;17.83;;;;;;;;;;6570534;28;20173;-86
2022/10/15 18:34:51;;;;;;;21.93;17.70;;;;;;;;;;6570878;28;20227;-85
2022/10/15 18:38:02;;;;;;;22.47;19.30;;;;;;;;;;6570613;28;20557;-85
2022/10/15 18:41:16;;;;;;;19.17;16.47;;;;;;;;;;6571263;28;20675;-85